Time;durP1;ratioP1;P1;durP2;ratioP2;P2;SDS_P1;SDS_P2;PMS_P1;PMS_P2;Temp;Humidity;BMP_temperature;BMP_pressure;BME280_temperature;BME280_humidity;BME280_pressure;Samples;Min_cycle;Max_cycle;Signal;HPM_P1;HPM_P2
2024/02/24 00:00:19;;;;;;;0.63;0.30;;;11.00;99.90;;;11.26;55.65;99116.09;6005340;22;97102;-41
2024/02/24 00:02:48;;;;;;;1.30;0.50;;;11.00;99.90;;;11.31;54.78;99119.31;5950969;22;99198;-34
2024/02/24 00:05:25;;;;;;;0.50;0.40;;;11.00;99.90;;;11.26;54.95;99122.22;6007114;22;103460;-33
2024/02/24 00:07:53;;;;;;;0.33;0.30;;;11.00;99.90;;;11.35;54.75;99123.44;5944585;22;103826;-36
2024/02/24 00:10:25;;;;;;;2.27;0.50;;;11.00;99.90;;;11.41;55.53;99125.69;5978589;22;104711;-34
2024/02/24 00:12:54;;;;;;;1.90;0.63;;;11.00;99.90;;;11.41;54.49;99109.84;5983535;22;97194;-34
2024/02/24 00:15:20;;;;;;;1.70;0.50;;;11.10;99.90;;;11.32;54.81;99118.34;5980243;22;104795;-43
2024/02/24 00:17:46;;;;;;;0.87;0.50;;;11.00;99.90;;;11.36;54.29;99117.22;6003317;22;99062;-36
2024/02/24 00:20:19;;;;;;;1.70;0.37;;;11.00;99.90;;;11.30;54.20;99128.16;6045350;22;120680;-34
2024/02/24 00:22:45;;;;;;;0.40;0.37;;;11.00;99.90;;;11.34;54.72;99119.09;6032700;22;98855;-35
2024/02/24 00:25:13;;;;;;;0.90;0.43;;;11.00;99.90;;;11.31;54.14;99114.03;5967838;22;101582;-34
2024/02/24 00:27:39;;;;;;;2.20;0.60;;;11.00;99.90;;;11.33;55.45;99120.06;5926833;22;99959;-36
2024/02/24 00:30:12;;;;;;;0.60;0.50;;;11.00;99.90;;;11.30;55.01;99117.63;5927747;22;97696;-37
2024/02/24 00:32:43;;;;;;;0.50;0.27;;;11.00;99.90;;;11.36;55.40;99111.94;6053096;22;97256;-35
2024/02/24 00:35:08;;;;;;;1.20;0.53;;;11.00;99.90;;;11.38;55.11;99099.47;5936676;23;98421;-36
2024/02/24 00:37:34;;;;;;;0.97;0.40;;;11.00;99.90;;;11.48;57.80;99105.88;5873193;22;126910;-36
2024/02/24 00:40:11;;;;;;;1.27;0.60;;;11.10;99.90;;;11.45;58.29;99106.09;5993849;22;97528;-36
2024/02/24 00:42:37;;;;;;;0.73;0.40;;;11.10;99.90;;;11.36;55.32;99116.38;5936869;22;106645;-36
2024/02/24 00:45:14;;;;;;;1.60;0.50;;;11.10;99.90;;;11.42;54.90;99110.69;5945750;22;127820;-41
2024/02/24 00:47:46;;;;;;;2.40;0.50;;;11.10;99.90;;;11.36;55.58;99117.22;6057160;22;102291;-36
2024/02/24 00:50:23;;;;;;;1.27;0.70;;;11.00;99.90;;;11.34;55.14;99111.19;5929460;22;120227;-36
2024/02/24 00:52:56;;;;;;;0.83;0.47;;;11.10;99.90;;;11.39;54.88;99122.28;5985443;22;97360;-38
2024/02/24 00:55:23;;;;;;;0.67;0.50;;;11.10;99.90;;;11.37;55.58;99118.91;5950821;23;101655;-36
2024/02/24 00:57:54;;;;;;;0.87;0.53;;;11.10;99.90;;;11.38;55.32;99123.25;5930590;22;105211;-34
2024/02/24 01:00:31;;;;;;;0.47;0.30;;;11.10;99.90;;;11.36;57.58;99122.50;5871731;22;97320;-36
2024/02/24 01:03:01;;;;;;;1.70;0.50;;;11.00;99.90;;;11.38;56.28;99120.59;5964362;22;105180;-37
2024/02/24 01:05:31;;;;;;;0.80;0.57;;;11.10;99.90;;;11.35;56.43;99120.81;5989307;23;100646;-37
2024/02/24 01:08:00;;;;;;;1.77;0.37;;;11.10;99.90;;;11.47;56.75;99120.03;5987109;22;110155;-37
2024/02/24 01:10:26;;;;;;;0.80;0.47;;;11.10;99.90;;;11.36;56.47;99124.28;6051400;22;97402;-35
2024/02/24 01:12:58;;;;;;;0.47;0.30;;;11.00;99.90;;;11.31;56.40;99124.59;6019563;22;100587;-36
2024/02/24 01:15:41;;;;;;;1.70;0.40;;;11.00;99.90;;;11.29;56.44;99126.47;5905617;23;111927;-36
2024/02/24 01:18:09;;;;;;;0.87;0.37;;;11.00;99.90;;;11.48;56.47;99121.72;5984172;22;98176;-42
2024/02/24 01:20:50;;;;;;;1.20;0.40;;;11.10;99.90;;;11.41;56.61;99125.69;5785468;22;104144;-37
2024/02/24 01:23:24;;;;;;;3.53;0.23;;;11.10;99.90;;;11.37;56.17;99121.53;5944130;23;98297;-36
2024/02/24 01:25:50;;;;;;;1.03;0.60;;;11.10;99.90;;;11.45;57.81;99127.19;6012331;22;103874;-36
2024/02/24 01:28:17;;;;;;;0.30;0.30;;;11.10;99.90;;;11.27;56.17;99130.97;5938043;22;98720;-33
2024/02/24 01:30:54;;;;;;;0.50;0.30;;;11.00;99.90;;;11.35;58.06;99126.09;6001892;22;106565;-35
2024/02/24 01:33:23;;;;;;;0.40;0.40;;;11.00;99.90;;;11.24;56.03;99132.03;5948254;23;121978;-33
2024/02/24 01:35:48;;;;;;;0.97;0.57;;;10.90;99.90;;;11.40;57.42;99128.41;5965654;22;103685;-35
2024/02/24 01:38:17;;;;;;;1.33;0.70;;;11.00;99.90;;;11.51;57.76;99118.88;5987486;22;132577;-36
2024/02/24 01:40:53;;;;;;;0.47;0.20;;;11.10;99.90;;;11.65;57.89;99115.34;5933713;22;97266;-36
2024/02/24 01:43:26;;;;;;;0.50;0.33;;;11.20;99.90;;;11.57;56.23;99110.59;5855480;23;99841;-42
2024/02/24 01:45:58;;;;;;;0.73;0.40;;;11.10;99.90;;;11.80;58.53;99103.00;5900859;23;102875;-36
2024/02/24 01:48:44;;;;;;;0.40;0.33;;;11.20;99.90;;;11.86;56.56;99116.66;5980410;22;103556;-35
2024/02/24 01:51:13;;;;;;;0.30;0.30;;;11.30;99.90;;;12.03;57.60;99123.47;6006489;22;97545;-36
2024/02/24 01:53:42;;;;;;;0.53;0.40;;;11.50;99.90;;;11.98;55.31;99125.56;5966032;22;97758;-37
2024/02/24 01:56:18;;;;;;;0.43;0.30;;;11.50;99.90;;;12.08;55.69;99121.38;5991897;22;99549;-39
2024/02/24 01:58:54;;;;;;;0.30;0.30;;;11.50;99.90;;;12.07;55.29;99124.97;5890178;22;101517;-37
2024/02/24 02:01:20;;;;;;;0.30;0.20;;;11.50;99.90;;;12.02;54.75;99115.66;5862962;22;97461;-34
2024/02/24 02:03:46;;;;;;;0.90;0.23;;;11.50;99.90;;;12.19;54.81;99120.66;6053777;22;102178;-33
2024/02/24 02:06:28;;;;;;;0.30;0.30;;;11.70;99.90;;;12.42;56.37;99113.81;6063101;22;127391;-37
2024/02/24 02:08:55;;;;;;;0.20;0.10;;;11.80;99.90;;;12.58;56.75;99119.75;5967599;23;104372;-36
2024/02/24 02:11:28;;;;;;;1.30;0.43;;;12.00;99.90;;;12.56;55.57;99121.66;5941353;23;98329;-33
2024/02/24 02:13:54;;;;;;;0.40;0.20;;;12.00;99.90;;;12.28;52.01;99121.84;5911936;22;98149;-37
2024/02/24 02:16:19;;;;;;;2.13;0.20;;;11.90;99.90;;;12.21;52.11;99140.75;5981412;22;98788;-35
2024/02/24 02:19:01;;;;;;;0.40;0.10;;;11.80;99.90;;;12.05;53.04;99136.59;6017124;22;114090;-36
2024/02/24 02:21:35;;;;;;;0.73;0.30;;;11.60;99.90;;;11.86;53.17;99131.63;6009633;22;97675;-35
2024/02/24 02:24:03;;;;;;;0.10;0.10;;;11.50;99.90;;;11.76;54.29;99136.66;5940037;22;99694;-37
2024/02/24 02:26:29;;;;;;;0.47;0.23;;;11.40;99.90;;;11.62;56.21;99134.91;5989362;22;99894;-35
2024/02/24 02:28:57;;;;;;;0.30;0.30;;;11.20;99.90;;;11.65;54.99;99133.84;5949769;22;113038;-37
2024/02/24 02:31:33;;;;;;;0.47;0.30;;;11.20;99.90;;;11.62;54.03;99132.25;5997382;22;107034;-37
2024/02/24 02:34:06;;;;;;;0.50;0.33;;;11.30;99.90;;;11.83;57.18;99134.47;6002998;23;98972;-37
2024/02/24 02:36:32;;;;;;;0.63;0.20;;;11.40;99.90;;;11.79;55.02;99135.63;6021275;22;99742;-37
2024/02/24 02:39:08;;;;;;;0.30;0.20;;;11.30;99.90;;;11.78;53.85;99140.03;5971422;22;98958;-36
2024/02/24 02:41:43;;;;;;;0.40;0.30;;;11.40;99.90;;;11.98;56.65;99140.56;5926742;22;118147;-35
2024/02/24 02:44:24;;;;;;;0.70;0.37;;;11.40;99.90;;;11.90;52.74;99149.00;5969379;22;100163;-40
2024/02/24 02:46:52;;;;;;;0.30;0.20;;;11.50;99.90;;;11.88;57.51;99135.06;6001884;22;102943;-40
2024/02/24 02:49:30;;;;;;;0.50;0.23;;;11.30;99.90;;;11.91;57.16;99140.97;6066009;23;102705;-37
2024/02/24 02:52:01;;;;;;;1.13;0.33;;;11.30;99.90;;;11.82;55.24;99135.44;5969426;23;118227;-36
2024/02/24 02:54:45;;;;;;;0.60;0.40;;;11.30;99.90;;;11.69;53.85;99139.78;5965011;22;97718;-36
2024/02/24 02:57:20;;;;;;;0.70;0.40;;;11.20;99.90;;;11.49;54.32;99138.41;5908272;23;102281;-36
2024/02/24 02:59:58;;;;;;;0.50;0.20;;;11.10;99.90;;;11.59;55.30;99135.09;5983167;23;113566;-39
2024/02/24 03:02:35;;;;;;;0.60;0.40;;;11.20;99.90;;;11.49;54.27;99139.25;6027961;22;98718;-37
2024/02/24 03:05:01;;;;;;;0.40;0.33;;;11.10;99.90;;;11.31;54.41;99135.16;5965304;23;98319;-35
2024/02/24 03:07:34;;;;;;;0.40;0.37;;;11.00;99.90;;;11.35;54.90;99143.72;5966904;23;129130;-35
2024/02/24 03:10:00;;;;;;;0.70;0.40;;;11.00;99.90;;;11.18;54.70;99139.50;6025834;23;99137;-38
2024/02/24 03:12:29;;;;;;;0.30;0.20;;;10.80;99.90;;;11.10;55.17;99141.75;6025619;23;97317;-34
2024/02/24 03:14:58;;;;;;;0.60;0.20;;;10.70;99.90;;;11.00;55.61;99142.31;6020179;23;108408;-42
2024/02/24 03:17:30;;;;;;;1.10;0.40;;;10.60;99.90;;;10.98;55.59;99144.19;6016888;22;103170;-34
2024/02/24 03:20:29;;;;;;;0.33;0.30;;;10.60;99.90;;;10.90;55.81;99143.81;6053256;23;100837;-45
2024/02/24 03:22:55;;;;;;;0.47;0.20;;;10.60;99.90;;;10.84;55.82;99152.09;6066703;23;97469;-34
2024/02/24 03:25:27;;;;;;;0.20;0.20;;;10.50;99.90;;;10.95;58.41;99147.00;6068349;23;109078;-36
2024/02/24 03:27:54;;;;;;;0.30;0.20;;;10.60;99.90;;;10.91;58.77;99150.78;6018108;23;102356;-35
2024/02/24 03:30:24;;;;;;;0.57;0.20;;;10.60;99.90;;;10.89;55.65;99146.56;6048994;22;99599;-34
2024/02/24 03:32:51;;;;;;;0.10;0.10;;;10.60;99.90;;;10.83;56.24;99145.13;6035949;22;99664;-36
2024/02/24 03:35:24;;;;;;;0.30;0.27;;;10.50;99.90;;;10.78;57.67;99144.56;6063298;23;97528;-35
2024/02/24 03:37:53;;;;;;;0.57;0.20;;;10.50;99.90;;;10.69;55.39;99145.94;6030941;22;108550;-36
2024/02/24 03:40:19;;;;;;;0.50;0.20;;;10.40;99.90;;;10.89;55.79;99144.75;5953806;22;117643;-37
2024/02/24 03:42:47;;;;;;;0.37;0.30;;;10.60;99.90;;;10.91;57.75;99142.03;6082894;22;97097;-37
2024/02/24 03:45:54;;;;;;;0.40;0.17;;;10.50;99.90;;;10.82;55.79;99148.69;5960391;23;111508;-35
2024/02/24 03:48:19;;;;;;;0.20;0.20;;;10.50;99.90;;;10.85;55.70;99158.19;6030147;22;103541;-35
2024/02/24 03:50:45;;;;;;;1.00;0.20;;;10.50;99.90;;;10.87;55.48;99165.13;6107532;22;98523;-35
2024/02/24 03:53:11;;;;;;;0.37;0.30;;;10.50;99.90;;;10.86;55.34;99166.06;5946842;22;117385;-35
2024/02/24 03:55:39;;;;;;;0.30;0.10;;;10.50;99.90;;;10.84;55.61;99170.53;6015855;22;97425;-34
2024/02/24 03:58:05;;;;;;;0.30;0.30;;;10.50;99.90;;;10.82;55.93;99169.78;6088420;22;128329;-33
2024/02/24 04:00:35;;;;;;;0.37;0.37;;;10.40;99.90;;;10.91;55.15;99171.88;6034338;22;112834;-39
2024/02/24 04:03:01;;;;;;;2.40;0.50;;;10.50;99.90;;;10.89;56.12;99172.94;6008078;22;108772;-36
2024/02/24 04:05:30;;;;;;;0.27;0.10;;;10.50;99.90;;;10.86;56.13;99176.59;5987051;22;109887;-37
2024/02/24 04:07:56;;;;;;;0.20;0.17;;;10.50;99.90;;;10.91;55.37;99169.25;6069623;22;99837;-35
2024/02/24 04:10:22;;;;;;;0.17;0.17;;;10.60;99.90;;;10.96;55.57;99169.81;6024093;23;97973;-34
2024/02/24 04:12:47;;;;;;;0.27;0.20;;;10.60;99.90;;;10.90;55.21;99164.91;5992655;23;118932;-36
2024/02/24 04:15:21;;;;;;;0.50;0.30;;;10.50;99.90;;;10.80;55.48;99176.94;6064643;22;102103;-33
2024/02/24 04:18:04;;;;;;;1.77;0.10;;;10.50;99.90;;;10.84;55.08;99178.47;6019036;22;107568;-39
2024/02/24 04:20:30;;;;;;;0.37;0.10;;;10.50;99.90;;;10.77;55.07;99176.28;6045662;22;101436;-36
2024/02/24 04:23:01;;;;;;;0.60;0.23;;;10.40;99.90;;;10.72;55.80;99179.22;6063843;22;97417;-35
2024/02/24 04:25:34;;;;;;;0.40;0.27;;;10.30;99.90;;;10.68;55.85;99178.53;5982272;22;99338;-36
2024/02/24 04:28:27;;;;;;;0.10;0.10;;;10.30;99.90;;;10.62;55.75;99178.91;6057392;22;102400;-36
2024/02/24 04:30:55;;;;;;;0.07;0.07;;;10.30;99.90;;;10.63;55.83;99185.03;6060750;22;101487;-35
2024/02/24 04:33:21;;;;;;;0.43;0.20;;;10.30;99.90;;;10.65;57.42;99185.78;6023702;22;107247;-34
2024/02/24 04:35:47;;;;;;;1.10;0.30;;;10.30;99.90;;;10.55;55.76;99187.25;6069597;22;118356;-34
2024/02/24 04:38:18;;;;;;;0.60;0.40;;;10.20;99.90;;;10.53;56.11;99195.25;6004349;22;131307;-36
2024/02/24 04:40:44;;;;;;;0.33;0.20;;;10.20;99.90;;;10.50;56.02;99189.31;5988890;22;131995;-35
2024/02/24 04:43:09;;;;;;;0.20;0.20;;;10.20;99.90;;;10.51;56.23;99191.88;5919397;22;111736;-35
2024/02/24 04:45:36;;;;;;;1.70;0.20;;;10.20;99.90;;;10.51;56.07;99191.00;6023354;22;97391;-35
2024/02/24 04:48:03;;;;;;;0.50;0.30;;;10.20;99.90;;;10.51;56.25;99185.75;6022938;22;100257;-36
2024/02/24 04:50:32;;;;;;;0.60;0.30;;;10.30;99.90;;;10.54;56.98;99191.66;5960837;23;99495;-36
2024/02/24 04:53:04;;;;;;;0.53;0.30;;;10.30;99.90;;;10.56;55.74;99194.22;6078365;22;97550;-35
2024/02/24 04:55:31;;;;;;;1.17;0.50;;;10.30;99.90;;;10.59;56.89;99194.06;5984403;23;97554;-35
2024/02/24 04:58:03;;;;;;;1.00;0.50;;;10.30;99.90;;;10.60;56.64;99201.03;6012550;22;101096;-41
2024/02/24 05:00:36;;;;;;;0.63;0.30;;;10.30;99.90;;;10.56;56.56;99205.63;6062148;22;99378;-36
2024/02/24 05:03:05;;;;;;;1.03;0.30;;;10.30;99.90;;;10.67;60.46;99208.47;6021522;22;97537;-33
2024/02/24 05:05:42;;;;;;;0.27;0.20;;;10.30;99.90;;;10.65;56.21;99209.50;6000432;22;97771;-35
2024/02/24 05:08:23;;;;;;;0.80;0.40;;;10.40;99.90;;;10.81;57.65;99198.91;6060418;22;98484;-35
2024/02/24 05:10:58;;;;;;;0.47;0.30;;;10.40;99.90;;;10.95;59.53;99207.69;6062758;22;119993;-33
2024/02/24 05:13:27;;;;;;;0.50;0.30;;;10.50;99.90;;;10.90;55.32;99215.03;6038308;22;98084;-37
2024/02/24 05:15:53;;;;;;;0.80;0.20;;;10.60;99.90;;;10.78;55.89;99221.03;6010287;22;97317;-36
2024/02/24 05:18:38;;;;;;;0.37;0.37;;;10.50;99.90;;;10.89;55.36;99218.63;6011448;22;103860;-35
2024/02/24 05:21:24;;;;;;;0.20;0.20;;;10.50;99.90;;;10.89;57.20;99229.16;6074750;22;102990;-36
2024/02/24 05:23:50;;;;;;;0.60;0.20;;;10.50;99.90;;;10.91;56.76;99237.84;5985594;22;97525;-33
2024/02/24 05:26:26;;;;;;;0.67;0.30;;;10.50;99.90;;;10.81;55.69;99236.69;5936603;23;97687;-34
2024/02/24 05:28:52;;;;;;;0.30;0.10;;;10.50;99.90;;;10.86;58.42;99234.63;6021130;22;104032;-38
2024/02/24 05:31:21;;;;;;;0.23;0.20;;;10.50;99.90;;;11.01;56.52;99243.44;6034648;22;102226;-41
2024/02/24 05:33:49;;;;;;;0.23;0.13;;;10.60;99.90;;;11.07;58.99;99239.56;6071934;22;96976;-36
2024/02/24 05:36:20;;;;;;;0.50;0.20;;;10.70;99.90;;;11.09;56.28;99238.53;6056008;22;98001;-35
2024/02/24 05:38:48;;;;;;;0.33;0.20;;;10.70;99.90;;;11.02;54.79;99232.78;6061240;22;102624;-36
2024/02/24 05:41:14;;;;;;;0.70;0.30;;;10.70;99.90;;;11.02;55.36;99235.41;5964367;23;102097;-34
2024/02/24 05:43:40;;;;;;;0.47;0.20;;;10.60;99.90;;;11.19;56.40;99241.47;6024722;22;98055;-36
2024/02/24 05:46:07;;;;;;;1.43;0.50;;;10.70;99.90;;;11.16;55.54;99241.66;6065286;22;109149;-35
2024/02/24 05:48:41;;;;;;;0.40;0.20;;;10.70;99.90;;;11.30;58.88;99244.31;6051971;22;99365;-34
2024/02/24 05:51:11;;;;;;;1.53;0.50;;;10.80;99.90;;;11.35;55.35;99246.66;5969975;22;100014;-36
2024/02/24 05:53:48;;;;;;;0.47;0.30;;;10.90;99.90;;;11.45;55.80;99246.00;6026564;22;97245;-34
2024/02/24 05:56:27;;;;;;;1.13;0.40;;;11.00;99.90;;;11.60;58.35;99245.06;5999725;22;97422;-37
2024/02/24 05:58:54;;;;;;;1.93;0.70;;;11.10;99.90;;;11.59;54.57;99240.72;6053317;22;102316;-35
2024/02/24 06:01:22;;;;;;;1.93;1.07;;;11.10;99.90;;;11.43;54.26;99252.31;6086346;22;99538;-36
2024/02/24 06:03:57;;;;;;;3.03;1.60;;;11.00;99.90;;;11.48;54.58;99253.75;6044405;22;121448;-35
2024/02/24 06:06:22;;;;;;;2.67;1.20;;;11.00;99.90;;;11.50;53.91;99262.41;6018949;22;119257;-41
2024/02/24 06:08:48;;;;;;;1.87;1.30;;;11.10;99.90;;;11.55;54.73;99265.59;5999078;22;103333;-33
2024/02/24 06:11:19;;;;;;;1.30;0.40;;;11.10;99.90;;;11.80;57.27;99264.13;6055360;22;128698;-36
2024/02/24 06:13:46;;;;;;;2.53;0.50;;;11.30;99.90;;;11.75;57.52;99255.63;6034295;22;97654;-33
2024/02/24 06:16:12;;;;;;;1.13;0.57;;;11.30;99.90;;;11.86;53.96;99258.44;5907989;22;99657;-36
2024/02/24 06:18:41;;;;;;;0.73;0.50;;;11.50;99.90;;;11.84;53.64;99255.06;6078989;22;97897;-39
2024/02/24 06:21:11;;;;;;;0.30;0.20;;;11.50;99.90;;;11.87;57.09;99263.66;6032227;22;97552;-36
2024/02/24 06:23:47;;;;;;;0.53;0.40;;;11.50;99.90;;;11.81;53.92;99276.38;6063412;22;97454;-34
2024/02/24 06:26:24;;;;;;;2.77;1.20;;;11.40;99.90;;;11.85;54.30;99277.88;6064858;22;106356;-36
2024/02/24 06:28:50;;;;;;;0.93;0.50;;;11.40;99.90;;;11.67;53.86;99286.94;6071474;22;103344;-36
2024/02/24 06:31:16;;;;;;;0.40;0.37;;;11.30;99.90;;;11.63;53.96;99287.13;6091376;22;110261;-34
2024/02/24 06:33:45;;;;;;;0.57;0.40;;;11.20;99.90;;;11.67;56.89;99284.28;5932452;22;97189;-42
2024/02/24 06:36:10;;;;;;;1.67;0.53;;;11.20;99.90;;;11.56;54.76;99287.59;6087909;22;107967;-38
2024/02/24 06:38:41;;;;;;;0.47;0.40;;;11.10;99.90;;;11.59;56.14;99288.25;6001359;22;111745;-36
2024/02/24 06:41:07;;;;;;;4.10;0.80;;;11.10;99.90;;;11.38;54.04;99289.56;6028039;22;98048;-35
2024/02/24 06:43:41;;;;;;;1.00;0.50;;;11.00;99.90;;;11.24;54.50;99281.63;6039643;22;111098;-37
2024/02/24 06:46:09;;;;;;;0.77;0.67;;;11.00;99.90;;;11.11;54.70;99292.06;6052826;22;97099;-33
2024/02/24 06:48:35;;;;;;;0.83;0.50;;;10.90;99.90;;;11.01;55.14;99290.91;6062838;22;104893;-37
2024/02/24 06:51:00;;;;;;;0.30;0.30;;;10.80;99.90;;;11.00;55.50;99298.00;6076048;22;126176;-34
2024/02/24 06:53:32;;;;;;;1.47;0.40;;;10.70;99.90;;;10.90;55.20;99288.06;6073986;22;118128;-33
2024/02/24 06:56:07;;;;;;;0.90;0.57;;;10.70;99.90;;;10.91;55.26;99293.25;6035888;23;97238;-37
2024/02/24 06:58:35;;;;;;;1.60;0.97;;;10.60;99.90;;;10.92;57.46;99302.00;6054840;22;97458;-34
2024/02/24 07:01:02;;;;;;;0.73;0.40;;;10.60;99.90;;;11.03;58.90;99311.00;6026659;22;98994;-36
2024/02/24 07:03:30;;;;;;;0.90;0.50;;;10.70;99.90;;;11.02;57.31;99317.22;5970215;22;99542;-36
2024/02/24 07:05:55;;;;;;;0.97;0.47;;;10.70;99.90;;;10.98;55.80;99314.81;6044648;22;97475;-36
2024/02/24 07:08:24;;;;;;;1.00;0.60;;;10.70;99.90;;;10.92;55.61;99313.41;6072803;22;121093;-36
2024/02/24 07:10:53;;;;;;;1.60;0.60;;;10.70;99.90;;;10.90;55.69;99320.56;5974750;23;111236;-36
2024/02/24 07:13:18;;;;;;;0.50;0.50;;;10.70;99.90;;;10.93;56.68;99325.66;6011828;23;97178;-35
2024/02/24 07:15:47;;;;;;;0.90;0.40;;;10.70;99.90;;;10.93;55.43;99330.94;6071083;22;97445;-36
2024/02/24 07:18:15;;;;;;;1.07;0.50;;;10.70;99.90;;;11.13;57.00;99332.38;6054240;22;125056;-36
2024/02/24 07:20:41;;;;;;;0.60;0.40;;;10.80;99.90;;;11.22;55.83;99336.28;6035761;22;103621;-39
2024/02/24 07:23:07;;;;;;;1.07;0.43;;;10.90;99.90;;;11.18;58.48;99330.34;6065961;22;117234;-36
2024/02/24 07:25:34;;;;;;;1.23;0.60;;;10.90;99.90;;;11.19;56.55;99339.13;5945120;23;117082;-35
2024/02/24 07:28:03;;;;;;;1.73;0.70;;;10.90;99.90;;;11.23;58.57;99338.00;6023612;22;99515;-35
2024/02/24 07:30:31;;;;;;;1.73;0.80;;;10.90;99.90;;;11.19;56.60;99342.59;6080121;22;98908;-37
2024/02/24 07:33:06;;;;;;;0.93;0.60;;;10.90;99.90;;;11.26;57.89;99348.34;6012412;22;117611;-34
2024/02/24 07:35:31;;;;;;;1.67;0.47;;;10.90;99.90;;;11.23;56.86;99343.25;6040608;22;97481;-36
2024/02/24 07:37:57;;;;;;;0.63;0.60;;;10.90;99.90;;;11.23;57.03;99359.09;6041458;22;122219;-39
2024/02/24 07:40:32;;;;;;;0.70;0.50;;;11.00;99.90;;;11.25;57.17;99351.94;5999856;23;100413;-34
2024/02/24 07:42:57;;;;;;;1.23;0.63;;;10.90;99.90;;;11.21;57.32;99361.00;5967108;22;98049;-35
2024/02/24 07:45:25;;;;;;;1.17;0.50;;;10.90;99.90;;;11.21;57.27;99366.25;6007944;23;112341;-33
2024/02/24 07:47:57;;;;;;;1.27;0.40;;;10.90;99.90;;;11.17;57.76;99365.59;5889546;22;101354;-35
2024/02/24 07:50:23;;;;;;;1.13;0.73;;;10.90;99.90;;;11.25;58.12;99373.06;6048659;22;101435;-44
2024/02/24 07:52:49;;;;;;;1.47;0.77;;;10.90;99.90;;;11.14;57.24;99376.34;5886793;23;98035;-36
2024/02/24 07:55:15;;;;;;;0.53;0.47;;;10.90;99.90;;;11.24;57.81;99389.84;5946067;23;99822;-33
2024/02/24 07:57:54;;;;;;;1.33;0.80;;;10.90;99.90;;;11.25;59.97;99383.59;5901976;22;97951;-35
2024/02/24 08:00:26;;;;;;;0.43;0.33;;;10.90;99.90;;;11.13;58.33;99395.72;5969464;22;129220;-36
2024/02/24 08:02:54;;;;;;;0.53;0.40;;;10.90;99.90;;;11.26;59.00;99395.88;5859244;23;99347;-36
2024/02/24 08:05:36;;;;;;;0.97;0.80;;;10.90;99.90;;;11.27;59.37;99395.78;6034158;22;97481;-36
2024/02/24 08:08:02;;;;;;;0.87;0.47;;;10.90;99.90;;;11.48;60.13;99396.31;6056198;22;105978;-37
2024/02/24 08:10:28;;;;;;;2.23;0.63;;;11.00;99.90;;;11.42;57.52;99401.09;6021387;22;97926;-33
2024/02/24 08:12:53;;;;;;;1.40;0.97;;;11.20;99.90;;;11.34;57.74;99401.56;6070112;22;106462;-35
2024/02/24 08:15:39;;;;;;;1.50;0.30;;;11.10;99.90;;;11.40;58.24;99398.56;6023554;22;114991;-36
2024/02/24 08:18:05;;;;;;;1.27;0.70;;;11.10;99.90;;;11.25;58.69;99405.56;5989139;22;101845;-35
2024/02/24 08:20:32;;;;;;;2.20;0.70;;;11.00;99.90;;;11.28;58.57;99415.09;6084187;22;97420;-39
2024/02/24 08:23:04;;;;;;;0.70;0.50;;;11.00;99.90;;;11.31;60.38;99414.94;5970068;22;123069;-42
2024/02/24 08:25:32;;;;;;;1.50;0.73;;;11.00;99.90;;;11.36;59.14;99410.25;6063761;22;97451;-40
2024/02/24 08:28:14;;;;;;;2.77;0.83;;;11.10;99.90;;;11.19;58.89;99421.78;6048952;22;122043;-36
2024/02/24 08:31:00;;;;;;;2.53;0.70;;;11.00;99.90;;;11.24;58.23;99419.72;5914403;22;99652;-36
2024/02/24 08:33:26;;;;;;;2.13;0.67;;;11.00;99.90;;;11.14;58.36;99425.59;6033809;22;97220;-34
2024/02/24 08:35:59;;;;;;;3.50;0.93;;;10.90;99.90;;;11.05;59.19;99428.78;5968693;23;110753;-36
2024/02/24 08:38:38;;;;;;;2.00;0.97;;;10.80;99.90;;;11.03;60.53;99424.44;5959634;22;134901;-41
2024/02/24 08:41:11;;;;;;;2.90;0.90;;;10.80;99.90;;;11.05;60.17;99428.78;5993465;22;103328;-36
2024/02/24 08:43:36;;;;;;;0.73;0.50;;;10.80;99.90;;;10.99;58.80;99438.75;6021573;22;97377;-45
2024/02/24 08:46:05;;;;;;;2.30;0.50;;;10.80;99.90;;;11.06;60.30;99441.03;6045452;22;97687;-36
2024/02/24 08:48:31;;;;;;;5.30;0.53;;;10.80;99.90;;;10.85;58.44;99449.25;5978814;22;127954;-35
2024/02/24 08:50:57;;;;;;;1.60;0.50;;;10.80;99.90;;;10.80;57.99;99459.16;6033051;23;112092;-36
2024/02/24 08:53:23;;;;;;;1.13;0.40;;;10.80;99.90;;;10.81;59.95;99452.97;6041373;22;97165;-35
2024/02/24 08:55:48;;;;;;;0.40;0.20;;;10.80;99.90;;;10.75;57.47;99465.66;6014352;22;97641;-35
2024/02/24 08:58:21;;;;;;;1.60;0.43;;;10.70;99.90;;;10.79;58.81;99464.53;6081673;22;122288;-40
2024/02/24 09:00:47;;;;;;;0.60;0.20;;;10.70;99.90;;;10.64;56.51;99472.34;6006868;22;123481;-34
2024/02/24 09:03:21;;;;;;;0.97;0.40;;;10.70;99.90;;;10.82;60.59;99475.75;5986591;22;97689;-35
2024/02/24 09:05:49;;;;;;;1.07;0.40;;;10.60;99.90;;;10.72;58.23;99482.50;6062916;22;97342;-36
2024/02/24 09:08:34;;;;;;;0.17;0.10;;;10.60;99.90;;;10.57;57.44;99476.28;6015121;22;101313;-35
2024/02/24 09:11:04;;;;;;;0.80;0.40;;;10.60;99.90;;;10.71;58.17;99488.72;5896110;22;102723;-34
2024/02/24 09:13:47;;;;;;;1.53;0.70;;;10.60;99.90;;;10.75;59.09;99487.59;6056730;22;97259;-37
2024/02/24 09:16:23;;;;;;;1.37;0.43;;;10.60;99.90;;;10.67;57.93;99487.16;6048652;22;97605;-37
2024/02/24 09:18:48;;;;;;;0.83;0.33;;;10.50;99.90;;;10.67;57.79;99487.16;5985462;22;98969;-35
2024/02/24 09:21:14;;;;;;;0.63;0.23;;;10.60;99.90;;;10.71;58.50;99491.34;6020851;22;126199;-36
2024/02/24 09:23:43;;;;;;;1.33;0.43;;;10.60;99.90;;;10.71;58.29;99504.53;5999639;22;111529;-34
2024/02/24 09:26:08;;;;;;;0.53;0.23;;;10.60;99.90;;;10.69;57.52;99501.09;5997967;22;110545;-33
2024/02/24 09:28:34;;;;;;;0.30;0.20;;;10.60;99.90;;;10.71;58.08;99504.53;6017027;22;100017;-36
2024/02/24 09:31:11;;;;;;;0.80;0.47;;;10.60;99.90;;;10.84;58.66;99509.97;5932807;23;114812;-35
2024/02/24 09:33:39;;;;;;;0.53;0.27;;;10.70;99.90;;;10.69;58.70;99512.50;5901029;22;101244;-35
2024/02/24 09:36:44;;;;;;;0.50;0.30;;;10.70;99.90;;;10.84;57.80;99516.09;6057923;22;97382;-36
2024/02/24 09:39:28;;;;;;;2.20;0.40;;;10.80;99.90;;;11.00;57.20;99530.19;5952056;22;103553;-35
2024/02/24 09:41:59;;;;;;;0.10;0.10;;;11.00;99.90;;;10.82;54.58;99528.53;5951972;22;102835;-34
2024/02/24 09:44:41;;;;;;;0.33;0.17;;;11.00;99.90;;;10.96;56.43;99525.97;5912641;23;97585;-34
2024/02/24 09:47:15;;;;;;;0.13;0.13;;;11.00;99.90;;;11.07;56.54;99527.19;5871853;23;98236;-37
2024/02/24 09:49:51;;;;;;;0.10;0.10;;;11.10;99.90;;;11.16;54.27;99535.44;5905947;22;101546;-36
2024/02/24 09:52:16;;;;;;;0.60;0.20;;;11.20;99.90;;;11.01;53.57;99539.78;5905900;22;98005;-40
2024/02/24 09:54:45;;;;;;;0.50;0.10;;;11.10;99.90;;;11.18;54.80;99545.91;5878422;22;120713;-37
2024/02/24 09:57:18;;;;;;;0.10;0.10;;;11.20;99.90;;;11.33;56.73;99539.78;5862526;22;101147;-36
2024/02/24 10:00:07;;;;;;;0.20;0.20;;;11.30;99.90;;;11.51;55.41;99533.44;5830484;22;101257;-37
2024/02/24 10:03:10;;;;;;;0.80;0.20;;;11.50;99.90;;;11.59;53.05;99547.09;5822398;22;101756;-36
2024/02/24 10:06:01;;;;;;;2.03;0.30;;;11.60;99.90;;;11.61;53.11;99545.19;5839656;22;98757;-37
2024/02/24 10:09:17;;;;;;;0.47;0.10;;;11.60;99.90;;;11.68;52.29;99556.25;5564416;23;99495;-39
2024/02/24 10:12:25;;;;;;;0.20;0.20;;;11.70;99.90;;;11.53;49.89;99557.97;5857352;22;102854;-37
2024/02/24 10:15:01;;;;;;;1.23;0.13;;;11.60;99.90;;;11.88;57.25;99557.78;5743255;22;105596;-37
2024/02/24 10:18:21;;;;;;;0.10;0.00;;;11.70;99.90;;;12.37;52.61;99565.44;5806487;22;97792;-36
2024/02/24 10:21:12;;;;;;;0.93;0.30;;;12.30;99.90;;;12.44;51.93;99556.19;5736770;23;101206;-39
2024/02/24 10:23:43;;;;;;;0.10;0.10;;;12.50;99.90;;;12.57;54.11;99566.88;5794241;22;102390;-37
2024/02/24 10:26:37;;;;;;;0.33;0.17;;;12.60;99.90;;;12.87;48.77;99564.13;5701976;22;105431;-39
2024/02/24 10:29:15;;;;;;;0.40;0.23;;;13.00;99.90;;;13.26;51.64;99566.97;5742660;23;102004;-36
2024/02/24 10:31:48;;;;;;;0.43;0.10;;;13.30;99.90;;;13.16;48.26;99565.81;5806524;22;100129;-40
2024/02/24 10:34:41;;;;;;;0.10;0.10;;;13.30;99.90;;;13.26;50.87;99574.06;5872735;22;99743;-36